createdAt,value
2023-09-24T00:00:05.875Z,1022.80
2023-09-24T00:01:06.063Z,1022.84
2023-09-24T00:02:06.270Z,1022.81
2023-09-24T00:03:06.542Z,1022.84
2023-09-24T00:04:06.677Z,1022.83
2023-09-24T00:05:06.802Z,1022.87
2023-09-24T00:06:07.043Z,1022.85
2023-09-24T00:07:07.209Z,1022.85
2023-09-24T00:08:07.377Z,1022.88
2023-09-24T00:09:07.582Z,1022.93
2023-09-24T00:10:07.735Z,1022.93
2023-09-24T00:11:07.905Z,1022.96
2023-09-24T00:12:08.080Z,1022.98
2023-09-24T00:13:08.292Z,1022.97
2023-09-24T00:14:08.473Z,1023.02
2023-09-24T00:15:08.661Z,1023.03
2023-09-24T00:16:08.826Z,1023.07
2023-09-24T00:17:08.981Z,1023.08
2023-09-24T00:18:09.223Z,1023.12
2023-09-24T00:19:09.296Z,1023.14
2023-09-24T00:20:09.480Z,1023.17
2023-09-24T00:21:09.638Z,1023.15
2023-09-24T00:22:09.827Z,1023.15
2023-09-24T00:23:10.023Z,1023.18
2023-09-24T00:24:10.193Z,1023.16
2023-09-24T00:25:10.382Z,1023.18
2023-09-24T00:26:10.538Z,1023.15
2023-09-24T00:27:10.757Z,1023.17
2023-09-24T00:28:10.957Z,1023.16
2023-09-24T00:29:11.112Z,1023.18
2023-09-24T00:30:11.310Z,1023.19
2023-09-24T00:31:11.465Z,1023.18
2023-09-24T00:32:11.694Z,1023.20
2023-09-24T00:33:12.188Z,1023.20
2023-09-24T00:34:12.014Z,1023.21
2023-09-24T00:35:12.188Z,1023.21
2023-09-24T00:36:12.374Z,1023.20
2023-09-24T00:37:12.597Z,1023.22
2023-09-24T00:38:12.698Z,1023.25
2023-09-24T00:39:12.914Z,1023.26
2023-09-24T00:40:13.243Z,1023.28
2023-09-24T00:41:13.261Z,1023.26
2023-09-24T00:42:13.472Z,1023.27
2023-09-24T00:43:13.637Z,1023.32
2023-09-24T00:44:13.851Z,1023.31
2023-09-24T00:45:14.014Z,1023.31
2023-09-24T00:46:14.193Z,1023.33
2023-09-24T00:47:14.389Z,1023.32
2023-09-24T00:48:14.605Z,1023.37
2023-09-24T00:49:14.750Z,1023.37
2023-09-24T00:50:14.912Z,1023.37
2023-09-24T00:51:15.088Z,1023.40
2023-09-24T00:52:15.309Z,1023.39
2023-09-24T00:53:15.498Z,1023.40
2023-09-24T00:54:15.691Z,1023.40
2023-09-24T00:55:15.866Z,1023.39
2023-09-24T00:56:16.035Z,1023.39
2023-09-24T00:57:16.210Z,1023.42
2023-09-24T00:58:16.401Z,1023.44
2023-09-24T00:59:16.550Z,1023.44
2023-09-24T01:00:16.751Z,1023.43
2023-09-24T01:01:16.974Z,1023.47
2023-09-24T01:02:18.178Z,1023.46
2023-09-24T01:03:17.378Z,1023.48
2023-09-24T01:04:17.662Z,1023.48
2023-09-24T01:05:17.669Z,1023.51
2023-09-24T01:06:17.862Z,1023.48
2023-09-24T01:07:18.038Z,1023.47
2023-09-24T01:08:18.213Z,1023.48
2023-09-24T01:09:18.388Z,1023.51
2023-09-24T01:10:18.565Z,1023.52
2023-09-24T01:11:18.751Z,1023.54
2023-09-24T01:12:18.928Z,1023.53
2023-09-24T01:13:19.163Z,1023.54
2023-09-24T01:14:19.332Z,1023.56
2023-09-24T01:15:19.489Z,1023.62
2023-09-24T01:16:19.708Z,1023.60
2023-09-24T01:17:19.850Z,1023.59
2023-09-24T01:18:20.169Z,1023.62
2023-09-24T01:19:20.230Z,1023.63
2023-09-24T01:20:20.446Z,1023.64
2023-09-24T01:21:20.717Z,1023.66
2023-09-24T01:22:20.798Z,1023.68
2023-09-24T01:23:21.007Z,1023.68
2023-09-24T01:24:21.165Z,1023.71
2023-09-24T01:25:21.431Z,1023.70
2023-09-24T01:26:21.657Z,1023.71
2023-09-24T01:27:21.692Z,1023.74
2023-09-24T01:28:21.858Z,1023.75
2023-09-24T01:29:22.077Z,1023.77
2023-09-24T01:30:22.247Z,1023.82
2023-09-24T01:31:22.415Z,1023.82
2023-09-24T01:32:22.712Z,1023.84
2023-09-24T01:33:23.017Z,1023.84
2023-09-24T01:34:23.032Z,1023.84
2023-09-24T01:35:23.194Z,1023.85
2023-09-24T01:36:23.320Z,1023.85
2023-09-24T01:37:23.523Z,1023.84
2023-09-24T01:38:23.716Z,1023.85
2023-09-24T01:39:23.914Z,1023.85
2023-09-24T01:40:24.089Z,1023.86
2023-09-24T01:41:24.289Z,1023.85
2023-09-24T01:42:24.442Z,1023.84
2023-09-24T01:43:24.654Z,1023.85
2023-09-24T01:44:24.879Z,1023.86
2023-09-24T01:45:25.034Z,1023.86
2023-09-24T01:46:25.197Z,1023.88
2023-09-24T01:47:25.475Z,1023.84
2023-09-24T01:48:25.695Z,1023.87
2023-09-24T01:49:25.761Z,1023.86
2023-09-24T01:50:25.981Z,1023.90
2023-09-24T01:51:26.147Z,1023.89
2023-09-24T01:52:26.319Z,1023.89
2023-09-24T01:53:26.529Z,1023.90
2023-09-24T01:54:26.732Z,1023.91
2023-09-24T01:55:26.869Z,1023.90
2023-09-24T01:56:27.108Z,1023.94
2023-09-24T01:57:27.233Z,1023.95
2023-09-24T01:58:27.416Z,1023.95
2023-09-24T01:59:27.686Z,1023.98
2023-09-24T02:00:27.815Z,1023.99
2023-09-24T02:01:27.946Z,1024.03
2023-09-24T02:02:28.237Z,1024.00
2023-09-24T02:03:28.408Z,1024.06
2023-09-24T02:04:28.520Z,1024.07
2023-09-24T02:05:28.761Z,1024.09
2023-09-24T02:06:28.844Z,1024.09
2023-09-24T02:07:29.063Z,1024.05
2023-09-24T02:08:29.265Z,1024.11
2023-09-24T02:09:29.437Z,1024.10
2023-09-24T02:10:29.600Z,1024.10
2023-09-24T02:11:29.813Z,1024.11
2023-09-24T02:12:29.973Z,1024.10
2023-09-24T02:13:30.180Z,1024.14
2023-09-24T02:14:30.374Z,1024.17
2023-09-24T02:15:30.520Z,1024.18
2023-09-24T02:16:30.786Z,1024.22
2023-09-24T02:17:30.956Z,1024.19
2023-09-24T02:18:31.304Z,1024.21
2023-09-24T02:19:31.521Z,1024.20
2023-09-24T02:20:31.551Z,1024.22
2023-09-24T02:21:31.626Z,1024.25
2023-09-24T02:22:31.776Z,1024.23
2023-09-24T02:23:32.038Z,1024.25
2023-09-24T02:24:32.194Z,1024.25
2023-09-24T02:25:32.334Z,1024.28
2023-09-24T02:26:32.584Z,1024.32
2023-09-24T02:27:32.707Z,1024.32
2023-09-24T02:28:32.904Z,1024.34
2023-09-24T02:29:33.144Z,1024.32
2023-09-24T02:30:33.398Z,1024.31
2023-09-24T02:31:33.439Z,1024.34
2023-09-24T02:32:33.654Z,1024.31
2023-09-24T02:33:33.860Z,1024.31
2023-09-24T02:34:33.989Z,1024.31
2023-09-24T02:35:34.222Z,1024.30
2023-09-24T02:36:34.329Z,1024.32
2023-09-24T02:37:34.505Z,1024.32
2023-09-24T02:38:34.739Z,1024.35
2023-09-24T02:39:34.880Z,1024.35
2023-09-24T02:40:35.042Z,1024.40
2023-09-24T02:41:35.278Z,1024.40
2023-09-24T02:42:35.395Z,1024.39
2023-09-24T02:43:35.607Z,1024.42
2023-09-24T02:44:35.817Z,1024.42
2023-09-24T02:45:35.963Z,1024.44
2023-09-24T02:46:36.153Z,1024.41
2023-09-24T02:47:36.407Z,1024.42
2023-09-24T02:48:36.709Z,1024.46
2023-09-24T02:49:36.720Z,1024.45
2023-09-24T02:50:36.943Z,1024.45
2023-09-24T02:51:37.072Z,1024.43
2023-09-24T02:52:37.248Z,1024.45
2023-09-24T02:53:37.524Z,1024.45
2023-09-24T02:54:37.596Z,1024.45
2023-09-24T02:55:37.765Z,1024.43
2023-09-24T02:56:37.958Z,1024.47
2023-09-24T02:57:38.134Z,1024.47
2023-09-24T02:58:38.329Z,1024.54
2023-09-24T02:59:38.504Z,1024.52
2023-09-24T03:00:38.664Z,1024.57
2023-09-24T03:01:38.863Z,1024.62
2023-09-24T03:02:39.155Z,1024.59
2023-09-24T03:03:39.387Z,1024.61
2023-09-24T03:04:39.502Z,1024.65
2023-09-24T03:05:39.582Z,1024.66
2023-09-24T03:06:39.773Z,1024.67
2023-09-24T03:07:39.964Z,1024.66
2023-09-24T03:08:40.190Z,1024.72
2023-09-24T03:09:40.348Z,1024.71
2023-09-24T03:10:40.563Z,1024.69
2023-09-24T03:11:40.752Z,1024.74
2023-09-24T03:12:40.889Z,1024.73
2023-09-24T03:13:41.114Z,1024.69
2023-09-24T03:14:41.298Z,1024.69
2023-09-24T03:15:41.502Z,1024.73
2023-09-24T03:16:41.709Z,1024.73
2023-09-24T03:17:41.936Z,1024.73
2023-09-24T03:18:42.160Z,1024.76
2023-09-24T03:19:42.244Z,1024.75
2023-09-24T03:20:42.420Z,1024.76
2023-09-24T03:21:42.583Z,1024.74
2023-09-24T03:22:42.745Z,1024.76
2023-09-24T03:23:43.048Z,1024.77
2023-09-24T03:24:43.118Z,1024.77
2023-09-24T03:25:43.297Z,1024.80
2023-09-24T03:26:43.497Z,1024.85
2023-09-24T03:27:43.663Z,1024.89
2023-09-24T03:28:43.896Z,1024.87
2023-09-24T03:29:44.079Z,1024.88
2023-09-24T03:30:44.214Z,1024.88
2023-09-24T03:31:44.436Z,1024.96
2023-09-24T03:32:44.642Z,1024.99
2023-09-24T03:33:44.964Z,1024.96
2023-09-24T03:34:44.972Z,1024.97
2023-09-24T03:35:45.136Z,1025.00
2023-09-24T03:36:45.324Z,1025.01
2023-09-24T03:37:45.500Z,1025.01
2023-09-24T03:38:45.750Z,1025.00
2023-09-24T03:39:45.880Z,1025.01
2023-09-24T03:40:46.040Z,1025.04
2023-09-24T03:41:46.265Z,1025.04
2023-09-24T03:42:46.430Z,1025.04
2023-09-24T03:43:46.805Z,1025.05
2023-09-24T03:44:46.778Z,1025.02
2023-09-24T03:45:46.962Z,1025.04
2023-09-24T03:46:47.124Z,1025.04
2023-09-24T03:47:47.345Z,1025.04
2023-09-24T03:48:47.502Z,1025.08
2023-09-24T03:49:47.673Z,1025.12
2023-09-24T03:50:47.853Z,1025.10
2023-09-24T03:51:48.030Z,1025.13
2023-09-24T03:52:48.218Z,1025.12
2023-09-24T03:53:48.656Z,1025.18
2023-09-24T03:54:48.574Z,1025.18
2023-09-24T03:55:48.734Z,1025.21
2023-09-24T03:56:48.927Z,1025.20
2023-09-24T03:57:49.477Z,1025.17
2023-09-24T03:58:49.236Z,1025.18
2023-09-24T03:59:49.508Z,1025.17
2023-09-24T04:00:49.636Z,1025.22
2023-09-24T04:01:49.901Z,1025.25
2023-09-24T04:02:50.864Z,1025.24
2023-09-24T04:03:50.448Z,1025.26
2023-09-24T04:04:50.326Z,1025.27
2023-09-24T04:05:50.592Z,1025.26
2023-09-24T04:06:50.682Z,1025.25
2023-09-24T04:07:51.051Z,1025.27
2023-09-24T04:08:51.076Z,1025.26
2023-09-24T04:09:52.204Z,1025.29
2023-09-24T04:10:51.434Z,1025.33
2023-09-24T04:11:51.665Z,1025.32
2023-09-24T04:12:52.507Z,1025.30
2023-09-24T04:13:51.972Z,1025.33
2023-09-24T04:14:52.232Z,1025.34
2023-09-24T04:15:52.394Z,1025.38
2023-09-24T04:16:52.535Z,1025.42
2023-09-24T04:17:52.827Z,1025.38
2023-09-24T04:18:52.977Z,1025.45
2023-09-24T04:19:53.129Z,1025.50
2023-09-24T04:20:53.386Z,1025.52
2023-09-24T04:21:53.479Z,1025.53
2023-09-24T04:22:53.630Z,1025.52
2023-09-24T04:23:53.891Z,1025.53
2023-09-24T04:24:54.042Z,1025.55
2023-09-24T04:25:54.178Z,1025.59
2023-09-24T04:26:54.390Z,1025.57
2023-09-24T04:27:54.523Z,1025.57
2023-09-24T04:28:54.752Z,1025.58
2023-09-24T04:29:54.937Z,1025.65
2023-09-24T04:30:55.113Z,1025.67
2023-09-24T04:31:55.252Z,1025.68
2023-09-24T04:32:55.620Z,1025.66
2023-09-24T04:33:56.138Z,1025.66
2023-09-24T04:34:55.784Z,1025.65
2023-09-24T04:35:56.035Z,1025.70
2023-09-24T04:36:56.152Z,1025.72
2023-09-24T04:37:56.347Z,1025.77
2023-09-24T04:38:56.519Z,1025.77
2023-09-24T04:39:56.693Z,1025.78
2023-09-24T04:40:56.891Z,1025.79
2023-09-24T04:41:57.061Z,1025.81
2023-09-24T04:42:57.247Z,1025.86
2023-09-24T04:43:57.418Z,1025.90
2023-09-24T04:44:57.624Z,1025.88
2023-09-24T04:45:57.866Z,1025.92
2023-09-24T04:46:58.008Z,1025.92
2023-09-24T04:47:58.243Z,1025.86
2023-09-24T04:48:58.532Z,1025.92
2023-09-24T04:49:58.551Z,1025.91
2023-09-24T04:50:58.799Z,1025.90
2023-09-24T04:51:58.963Z,1025.94
2023-09-24T04:52:59.141Z,1025.91
2023-09-24T04:53:59.881Z,1025.94
2023-09-24T04:54:59.525Z,1026.01
2023-09-24T04:55:59.710Z,1026.03
2023-09-24T04:56:59.881Z,1026.05
2023-09-24T04:58:00.043Z,1026.08
2023-09-24T04:59:00.234Z,1026.11
2023-09-24T05:00:00.517Z,1026.12
2023-09-24T05:01:00.663Z,1026.12
2023-09-24T05:02:00.821Z,1026.15
2023-09-24T05:03:01.097Z,1026.15
2023-09-24T05:04:01.369Z,1026.14
2023-09-24T05:05:01.614Z,1026.21
2023-09-24T05:06:01.649Z,1026.25
2023-09-24T05:07:01.755Z,1026.33
2023-09-24T05:08:02.000Z,1026.34
2023-09-24T05:09:02.174Z,1026.39
2023-09-24T05:10:02.357Z,1026.41
2023-09-24T05:11:02.551Z,1026.45
2023-09-24T05:12:02.750Z,1026.47
2023-09-24T05:13:02.889Z,1026.47
2023-09-24T05:14:03.050Z,1026.48
2023-09-24T05:15:03.283Z,1026.52
2023-09-24T05:16:03.419Z,1026.57
2023-09-24T05:17:03.715Z,1026.53
2023-09-24T05:18:03.838Z,1026.57
2023-09-24T05:19:03.979Z,1026.61
2023-09-24T05:20:04.233Z,1026.61
2023-09-24T05:21:04.349Z,1026.65
2023-09-24T05:22:04.472Z,1026.66
2023-09-24T05:23:04.659Z,1026.68
2023-09-24T05:24:04.882Z,1026.66
2023-09-24T05:25:05.034Z,1026.71
2023-09-24T05:26:05.183Z,1026.70
2023-09-24T05:27:05.409Z,1026.73
2023-09-24T05:28:05.532Z,1026.71
2023-09-24T05:29:05.757Z,1026.76
2023-09-24T05:30:05.943Z,1026.76
2023-09-24T05:31:06.157Z,1026.74
2023-09-24T05:32:06.264Z,1026.77
2023-09-24T05:33:06.511Z,1026.73
2023-09-24T05:34:06.631Z,1026.74
2023-09-24T05:35:06.803Z,1026.73
2023-09-24T05:36:07.060Z,1026.76
2023-09-24T05:37:07.158Z,1026.75
2023-09-24T05:38:07.330Z,1026.76
2023-09-24T05:39:07.553Z,1026.77
2023-09-24T05:40:08.081Z,1026.81
2023-09-24T05:41:07.864Z,1026.83
2023-09-24T05:42:08.138Z,1026.82
2023-09-24T05:43:08.263Z,1026.86
2023-09-24T05:44:08.405Z,1026.90
2023-09-24T05:45:08.654Z,1026.89
2023-09-24T05:46:08.880Z,1026.96
2023-09-24T05:47:08.928Z,1026.95
2023-09-24T05:48:09.188Z,1026.98
2023-09-24T05:49:09.317Z,1027.06
2023-09-24T05:50:09.613Z,1027.05
2023-09-24T05:51:09.740Z,1027.08
2023-09-24T05:52:09.866Z,1027.06
2023-09-24T05:53:10.060Z,1027.08
2023-09-24T05:54:10.297Z,1027.09
2023-09-24T05:55:10.522Z,1027.11
2023-09-24T05:56:10.609Z,1027.12
2023-09-24T05:57:10.829Z,1027.19
2023-09-24T05:58:10.968Z,1027.19
2023-09-24T05:59:11.170Z,1027.23
2023-09-24T06:00:11.534Z,1027.24
2023-09-24T06:01:11.544Z,1027.25
2023-09-24T06:02:11.758Z,1027.29
2023-09-24T06:03:12.007Z,1027.29
2023-09-24T06:04:12.176Z,1027.27
2023-09-24T06:05:12.258Z,1027.31
2023-09-24T06:06:12.493Z,1027.34
2023-09-24T06:07:12.620Z,1027.31
2023-09-24T06:08:12.799Z,1027.34
2023-09-24T06:09:15.453Z,1027.40
2023-09-24T06:10:13.219Z,1027.37
2023-09-24T06:11:13.334Z,1027.39
2023-09-24T06:12:13.540Z,1027.43
2023-09-24T06:13:13.698Z,1027.39
2023-09-24T06:14:13.884Z,1027.37
2023-09-24T06:15:14.112Z,1027.41
2023-09-24T06:16:14.269Z,1027.41
2023-09-24T06:17:14.406Z,1027.45
2023-09-24T06:18:14.631Z,1027.50
2023-09-24T06:19:14.876Z,1027.49
2023-09-24T06:20:15.545Z,1027.51
2023-09-24T06:21:15.098Z,1027.51
2023-09-24T06:22:15.291Z,1027.51
2023-09-24T06:23:15.447Z,1027.54
2023-09-24T06:24:15.628Z,1027.55
2023-09-24T06:25:15.815Z,1027.59
2023-09-24T06:26:16.000Z,1027.59
2023-09-24T06:27:16.226Z,1027.64
2023-09-24T06:28:16.359Z,1027.61
2023-09-24T06:29:16.557Z,1027.64
2023-09-24T06:30:16.703Z,1027.67
2023-09-24T06:31:16.968Z,1027.68
2023-09-24T06:32:17.117Z,1027.70
2023-09-24T06:33:17.336Z,1027.73
2023-09-24T06:34:17.441Z,1027.71
2023-09-24T06:35:17.605Z,1027.68
2023-09-24T06:36:17.801Z,1027.72
2023-09-24T06:37:18.012Z,1027.70
2023-09-24T06:38:18.153Z,1027.73
2023-09-24T06:39:18.392Z,1027.70
2023-09-24T06:40:18.535Z,1027.76
2023-09-24T06:41:18.724Z,1027.71
2023-09-24T06:42:19.014Z,1027.75
2023-09-24T06:43:19.103Z,1027.71
2023-09-24T06:44:19.265Z,1027.77
2023-09-24T06:45:19.453Z,1027.75
2023-09-24T06:46:19.660Z,1027.78
2023-09-24T06:47:19.833Z,1027.80
2023-09-24T06:48:22.217Z,1027.78
2023-09-24T06:49:20.177Z,1027.78
2023-09-24T06:50:20.350Z,1027.78
2023-09-24T06:51:20.577Z,1027.80
2023-09-24T06:52:20.746Z,1027.77
2023-09-24T06:53:20.921Z,1027.82
2023-09-24T06:54:21.091Z,1027.81
2023-09-24T06:55:22.228Z,1027.82
2023-09-24T06:56:21.485Z,1027.86
2023-09-24T06:57:21.697Z,1027.86
2023-09-24T06:58:21.853Z,1027.87
2023-09-24T06:59:22.015Z,1027.97
2023-09-24T07:00:22.227Z,1027.94
2023-09-24T07:01:22.473Z,1027.94
2023-09-24T07:02:23.109Z,1027.97
2023-09-24T07:03:22.875Z,1027.99
2023-09-24T07:04:23.112Z,1028.00
2023-09-24T07:05:23.130Z,1027.99
2023-09-24T07:06:23.463Z,1028.02
2023-09-24T07:07:23.528Z,1028.04
2023-09-24T07:08:23.673Z,1028.05
2023-09-24T07:09:23.840Z,1028.05
2023-09-24T07:10:24.088Z,1028.14
2023-09-24T07:11:24.282Z,1028.14
2023-09-24T07:12:24.439Z,1028.16
2023-09-24T07:13:24.636Z,1028.18
2023-09-24T07:14:24.826Z,1028.17
2023-09-24T07:15:25.020Z,1028.16
2023-09-24T07:16:26.191Z,1028.20
2023-09-24T07:17:25.415Z,1028.18
2023-09-24T07:18:26.660Z,1028.20
2023-09-24T07:19:25.768Z,1028.20
2023-09-24T07:20:25.939Z,1028.23
2023-09-24T07:21:34.473Z,1028.26
2023-09-24T07:22:27.811Z,1028.29
2023-09-24T07:23:26.509Z,1028.30
2023-09-24T07:24:26.755Z,1028.29
2023-09-24T07:25:26.905Z,1028.35
2023-09-24T07:26:27.045Z,1028.38
2023-09-24T07:27:27.276Z,1028.38
2023-09-24T07:28:27.425Z,1028.38
2023-09-24T07:29:27.630Z,1028.38
2023-09-24T07:30:27.843Z,1028.42
2023-09-24T07:31:30.410Z,1028.41
2023-09-24T07:32:28.250Z,1028.38
2023-09-24T07:33:28.472Z,1028.40
2023-09-24T07:34:28.552Z,1028.38
2023-09-24T07:35:28.718Z,1028.37
2023-09-24T07:36:33.901Z,1028.37
2023-09-24T07:37:30.120Z,1028.36
2023-09-24T07:38:29.265Z,1028.35
2023-09-24T07:39:29.462Z,1028.42
2023-09-24T07:40:29.636Z,1028.42
2023-09-24T07:41:29.826Z,1028.38
2023-09-24T07:42:29.982Z,1028.41
2023-09-24T07:43:30.166Z,1028.40
2023-09-24T07:44:30.331Z,1028.39
2023-09-24T07:45:30.514Z,1028.41
2023-09-24T07:46:30.725Z,1028.41
2023-09-24T07:47:30.924Z,1028.44
2023-09-24T07:48:31.163Z,1028.42
2023-09-24T07:49:31.241Z,1028.42
2023-09-24T07:50:31.479Z,1028.43
2023-09-24T07:51:31.637Z,1028.42
2023-09-24T07:52:31.809Z,1028.45
2023-09-24T07:53:32.006Z,1028.47
2023-09-24T07:54:32.187Z,1028.50
2023-09-24T07:55:32.326Z,1028.54
2023-09-24T07:56:32.579Z,1028.57
2023-09-24T07:57:32.704Z,1028.60
2023-09-24T07:58:32.877Z,1028.58
2023-09-24T07:59:33.090Z,1028.59
2023-09-24T08:00:33.241Z,1028.61
2023-09-24T08:01:33.451Z,1028.59
2023-09-24T08:02:33.664Z,1028.55
2023-09-24T08:03:33.881Z,1028.58
2023-09-24T08:04:34.006Z,1028.56
2023-09-24T08:05:34.179Z,1028.58
2023-09-24T08:06:34.344Z,1028.64
2023-09-24T08:07:34.518Z,1028.63
2023-09-24T08:08:50.071Z,1028.65
2023-09-24T08:09:35.914Z,1028.69
2023-09-24T08:10:37.212Z,1028.71
2023-09-24T08:11:35.243Z,1028.71
2023-09-24T08:12:35.401Z,1028.71
2023-09-24T08:13:35.613Z,1028.73
2023-09-24T08:14:35.875Z,1028.68
2023-09-24T08:15:36.048Z,1028.70
2023-09-24T08:16:36.146Z,1028.70
2023-09-24T08:17:36.342Z,1028.66
2023-09-24T08:18:36.588Z,1028.70
2023-09-24T08:19:36.701Z,1028.74
2023-09-24T08:20:36.871Z,1028.73
2023-09-24T08:21:37.011Z,1028.73
2023-09-24T08:22:37.175Z,1028.76
2023-09-24T08:23:37.436Z,1028.79
2023-09-24T08:24:37.575Z,1028.76
2023-09-24T08:25:37.744Z,1028.77
2023-09-24T08:26:38.209Z,1028.79
2023-09-24T08:27:38.100Z,1028.78
2023-09-24T08:28:38.323Z,1028.77
2023-09-24T08:29:38.527Z,1028.78
2023-09-24T08:30:38.696Z,1028.79
2023-09-24T08:31:38.938Z,1028.84
2023-09-24T08:32:39.115Z,1028.82
2023-09-24T08:33:39.330Z,1028.81
2023-09-24T08:34:40.398Z,1028.80
2023-09-24T08:35:39.686Z,1028.85
2023-09-24T08:36:39.833Z,1028.84
2023-09-24T08:37:40.019Z,1028.82
2023-09-24T08:38:40.412Z,1028.87
2023-09-24T08:39:40.394Z,1028.86
2023-09-24T08:40:40.571Z,1028.86
2023-09-24T08:41:40.812Z,1028.84
2023-09-24T08:42:41.493Z,1028.88
2023-09-24T08:43:41.680Z,1028.90
2023-09-24T08:44:41.341Z,1028.88
2023-09-24T08:45:41.482Z,1028.90
2023-09-24T08:46:41.671Z,1028.91
2023-09-24T08:47:41.982Z,1028.92
2023-09-24T08:48:43.167Z,1028.84
2023-09-24T08:49:42.214Z,1028.90
2023-09-24T08:50:42.434Z,1028.91
2023-09-24T08:51:42.604Z,1028.92
2023-09-24T08:52:42.813Z,1028.93
2023-09-24T08:53:43.001Z,1028.97
2023-09-24T08:54:43.171Z,1028.95
2023-09-24T08:55:43.334Z,1028.98
2023-09-24T08:56:43.572Z,1028.93
2023-09-24T08:57:43.709Z,1028.97
2023-09-24T08:58:43.936Z,1028.97
2023-09-24T08:59:44.110Z,1028.99
2023-09-24T09:00:44.301Z,1028.98
2023-09-24T09:01:44.446Z,1028.95
2023-09-24T09:02:44.749Z,1028.99
2023-09-24T09:03:44.929Z,1029.00
2023-09-24T09:04:44.977Z,1029.01
2023-09-24T09:05:45.209Z,1029.06
2023-09-24T09:06:45.334Z,1029.03
2023-09-24T09:07:45.539Z,1029.03
2023-09-24T09:08:45.817Z,1029.05
2023-09-24T09:09:45.911Z,1029.03
2023-09-24T09:10:46.060Z,1029.04
2023-09-24T09:11:46.280Z,1029.04
2023-09-24T09:12:46.465Z,1029.01
2023-09-24T09:13:46.622Z,1028.99
2023-09-24T09:14:46.856Z,1029.02
2023-09-24T09:15:46.992Z,1028.98
2023-09-24T09:16:48.213Z,1028.98
2023-09-24T09:17:47.479Z,1028.92
2023-09-24T09:18:47.798Z,1028.92
2023-09-24T09:19:47.775Z,1028.89
2023-09-24T09:20:47.949Z,1028.90
2023-09-24T09:21:48.123Z,1028.90
2023-09-24T09:22:48.300Z,1028.89
2023-09-24T09:23:48.527Z,1028.88
2023-09-24T09:24:48.676Z,1028.90
2023-09-24T09:25:48.839Z,1028.91
2023-09-24T09:26:49.064Z,1028.93
2023-09-24T09:27:49.238Z,1028.90
2023-09-24T09:28:49.644Z,1028.86
2023-09-24T09:29:49.620Z,1028.88
2023-09-24T09:30:49.757Z,1028.85
2023-09-24T09:31:49.897Z,1028.86
2023-09-24T09:32:50.169Z,1028.87
2023-09-24T09:33:50.286Z,1028.86
2023-09-24T09:34:50.466Z,1028.90
2023-09-24T09:35:50.653Z,1028.89
2023-09-24T09:36:50.815Z,1028.83
2023-09-24T09:37:51.998Z,1028.85
2023-09-24T09:38:51.369Z,1028.82
2023-09-24T09:39:51.379Z,1028.87
2023-09-24T09:40:51.564Z,1028.83
2023-09-24T09:41:51.794Z,1028.78
2023-09-24T09:42:51.975Z,1028.83
2023-09-24T09:43:52.162Z,1028.81
2023-09-24T09:44:52.380Z,1028.75
2023-09-24T09:45:52.539Z,1028.81
2023-09-24T09:46:52.686Z,1028.78
2023-09-24T09:47:52.925Z,1028.77
2023-09-24T09:48:53.170Z,1028.76
2023-09-24T09:49:53.216Z,1028.77
2023-09-24T09:50:53.444Z,1028.71
2023-09-24T09:51:53.678Z,1028.75
2023-09-24T09:52:54.737Z,1028.73
2023-09-24T09:53:54.044Z,1028.67
2023-09-24T09:54:54.129Z,1028.69
2023-09-24T09:55:54.351Z,1028.64
2023-09-24T09:56:54.525Z,1028.60
2023-09-24T09:57:59.697Z,1028.63
2023-09-24T09:58:55.899Z,1028.63
2023-09-24T09:59:55.087Z,1028.64
2023-09-24T10:00:55.284Z,1028.67
2023-09-24T10:01:55.474Z,1028.65
2023-09-24T10:02:55.684Z,1028.64
2023-09-24T10:03:55.864Z,1028.63
2023-09-24T10:04:55.990Z,1028.69
2023-09-24T10:05:56.282Z,1028.71
2023-09-24T10:06:56.397Z,1028.67
2023-09-24T10:07:56.571Z,1028.71
2023-09-24T10:08:56.894Z,1028.69
2023-09-24T10:09:56.981Z,1028.71
2023-09-24T10:10:57.117Z,1028.72
2023-09-24T10:11:57.972Z,1028.67
2023-09-24T10:12:57.518Z,1028.70
2023-09-24T10:13:58.199Z,1028.73
2023-09-24T10:14:57.903Z,1028.67
2023-09-24T10:15:58.078Z,1028.70
2023-09-24T10:16:58.234Z,1028.69
2023-09-24T10:17:58.525Z,1028.66
2023-09-24T10:18:58.641Z,1028.71
2023-09-24T10:19:59.678Z,1028.69
2023-09-24T10:20:58.977Z,1028.65
2023-09-24T10:21:59.118Z,1028.70
2023-09-24T10:22:59.312Z,1028.74
2023-09-24T10:23:59.510Z,1028.73
2023-09-24T10:24:59.683Z,1028.72
2023-09-24T10:25:59.849Z,1028.75
2023-09-24T10:27:00.076Z,1028.75
2023-09-24T10:28:08.278Z,1028.74
2023-09-24T10:29:01.412Z,1028.78
2023-09-24T10:30:00.575Z,1028.77
2023-09-24T10:31:00.767Z,1028.67
2023-09-24T10:32:00.975Z,1028.68
2023-09-24T10:33:01.147Z,1028.65
2023-09-24T10:34:01.306Z,1028.66
2023-09-24T10:35:01.509Z,1028.63
2023-09-24T10:36:01.695Z,1028.66
2023-09-24T10:37:01.825Z,1028.64
2023-09-24T10:38:02.048Z,1028.62
2023-09-24T10:39:02.222Z,1028.62
2023-09-24T10:40:02.403Z,1028.59
2023-09-24T10:41:02.592Z,1028.66
2023-09-24T10:42:02.842Z,1028.66
2023-09-24T10:43:02.995Z,1028.64
2023-09-24T10:44:03.164Z,1028.63
2023-09-24T10:45:03.477Z,1028.61
2023-09-24T10:46:03.602Z,1028.64
2023-09-24T10:47:03.747Z,1028.61
2023-09-24T10:48:03.983Z,1028.60
2023-09-24T10:49:04.181Z,1028.60
2023-09-24T10:50:04.257Z,1028.64
2023-09-24T10:51:04.489Z,1028.60
2023-09-24T10:52:04.646Z,1028.61
2023-09-24T10:53:05.819Z,1028.61
2023-09-24T10:54:05.053Z,1028.65
2023-09-24T10:55:05.179Z,1028.64
2023-09-24T10:56:12.049Z,1028.60
2023-09-24T10:57:06.618Z,1028.61
2023-09-24T10:58:05.777Z,1028.65
2023-09-24T10:59:05.967Z,1028.61
2023-09-24T11:00:07.192Z,1028.61
2023-09-24T11:01:06.428Z,1028.63
2023-09-24T11:02:06.581Z,1028.63
2023-09-24T11:03:06.936Z,1028.60
2023-09-24T11:04:07.085Z,1028.59
2023-09-24T11:05:07.200Z,1028.59
2023-09-24T11:06:07.310Z,1028.59
2023-09-24T11:07:07.493Z,1028.60
2023-09-24T11:08:07.660Z,1028.64
2023-09-24T11:09:07.871Z,1028.60
2023-09-24T11:10:08.050Z,1028.62
2023-09-24T11:11:08.216Z,1028.63
2023-09-24T11:12:08.460Z,1028.62
2023-09-24T11:13:08.588Z,1028.66
2023-09-24T11:14:08.819Z,1028.66
2023-09-24T11:15:15.046Z,1028.65
2023-09-24T11:16:10.322Z,1028.66
2023-09-24T11:17:09.337Z,1028.63
2023-09-24T11:18:09.622Z,1028.67
2023-09-24T11:19:09.731Z,1028.66
2023-09-24T11:20:09.964Z,1028.65
2023-09-24T11:21:10.124Z,1028.68
2023-09-24T11:22:10.290Z,1028.70
2023-09-24T11:23:10.458Z,1028.67
2023-09-24T11:24:10.663Z,1028.67
2023-09-24T11:25:10.831Z,1028.69
2023-09-24T11:26:11.969Z,1028.66
2023-09-24T11:27:11.229Z,1028.66
2023-09-24T11:28:11.392Z,1028.64
2023-09-24T11:29:11.585Z,1028.65
2023-09-24T11:30:11.843Z,1028.67
2023-09-24T11:31:11.999Z,1028.64
2023-09-24T11:32:12.137Z,1028.61
2023-09-24T11:33:12.449Z,1028.63
2023-09-24T11:34:12.486Z,1028.63
2023-09-24T11:35:12.651Z,1028.61
2023-09-24T11:36:12.905Z,1028.58
2023-09-24T11:37:13.032Z,1028.55
2023-09-24T11:38:13.313Z,1028.55
2023-09-24T11:39:13.502Z,1028.55
2023-09-24T11:40:13.633Z,1028.57
2023-09-24T11:41:13.917Z,1028.59
2023-09-24T11:42:14.069Z,1028.53
2023-09-24T11:43:14.212Z,1028.55
2023-09-24T11:44:14.391Z,1028.56
2023-09-24T11:45:14.625Z,1028.56
2023-09-24T11:46:14.810Z,1028.56
2023-09-24T11:47:14.967Z,1028.56
2023-09-24T11:48:15.173Z,1028.55
2023-09-24T11:49:15.328Z,1028.58
2023-09-24T11:50:15.499Z,1028.55
2023-09-24T11:51:15.793Z,1028.53
2023-09-24T11:52:15.865Z,1028.54
2023-09-24T11:53:16.099Z,1028.50
2023-09-24T11:54:16.329Z,1028.50
2023-09-24T11:55:16.437Z,1028.51
2023-09-24T11:56:16.643Z,1028.52
2023-09-24T11:57:16.856Z,1028.50
2023-09-24T11:58:17.021Z,1028.46
2023-09-24T11:59:17.171Z,1028.46
2023-09-24T12:00:17.411Z,1028.44
2023-09-24T12:01:17.582Z,1028.47
2023-09-24T12:02:17.736Z,1028.48
2023-09-24T12:03:18.034Z,1028.50
2023-09-24T12:04:18.225Z,1028.47
2023-09-24T12:05:32.147Z,1028.47
2023-09-24T12:06:19.487Z,1028.48
2023-09-24T12:07:18.598Z,1028.48